sensor_id;sensor_type;location;lat;lon;timestamp;P1;durP1;ratioP1;P2;durP2;ratioP2
48987;SDS011;34799;51.440;-2.534;2023-12-22T00:01:21;6.90;;;0.77;;
48987;SDS011;34799;51.440;-2.534;2023-12-22T00:03:48;7.03;;;1.50;;
48987;SDS011;34799;51.440;-2.534;2023-12-22T00:06:19;7.60;;;0.70;;
48987;SDS011;34799;51.440;-2.534;2023-12-22T00:08:49;6.05;;;0.60;;
48987;SDS011;34799;51.440;-2.534;2023-12-22T00:11:18;5.38;;;0.93;;
48987;SDS011;34799;51.440;-2.534;2023-12-22T00:13:46;7.28;;;0.68;;
48987;SDS011;34799;51.440;-2.534;2023-12-22T00:16:16;6.22;;;0.65;;
48987;SDS011;34799;51.440;-2.534;2023-12-22T00:18:44;4.88;;;0.70;;
48987;SDS011;34799;51.440;-2.534;2023-12-22T00:21:13;8.18;;;0.95;;
48987;SDS011;34799;51.440;-2.534;2023-12-22T00:23:41;5.57;;;0.90;;
48987;SDS011;34799;51.440;-2.534;2023-12-22T00:26:10;4.95;;;0.85;;
48987;SDS011;34799;51.440;-2.534;2023-12-22T00:28:39;7.38;;;0.73;;
48987;SDS011;34799;51.440;-2.534;2023-12-22T00:31:11;7.90;;;1.23;;
48987;SDS011;34799;51.440;-2.534;2023-12-22T00:33:42;6.18;;;0.55;;
48987;SDS011;34799;51.440;-2.534;2023-12-22T00:36:11;5.15;;;0.55;;
48987;SDS011;34799;51.440;-2.534;2023-12-22T00:38:40;7.95;;;0.60;;
48987;SDS011;34799;51.440;-2.534;2023-12-22T00:41:10;5.45;;;0.70;;
48987;SDS011;34799;51.440;-2.534;2023-12-22T00:43:37;4.95;;;0.70;;
48987;SDS011;34799;51.440;-2.534;2023-12-22T00:46:09;12.60;;;1.30;;
48987;SDS011;34799;51.440;-2.534;2023-12-22T00:48:40;9.68;;;0.95;;
48987;SDS011;34799;51.440;-2.534;2023-12-22T00:51:09;6.07;;;0.80;;
48987;SDS011;34799;51.440;-2.534;2023-12-22T00:53:38;9.02;;;1.00;;
48987;SDS011;34799;51.440;-2.534;2023-12-22T00:56:07;6.35;;;1.25;;
48987;SDS011;34799;51.440;-2.534;2023-12-22T00:58:36;10.93;;;1.45;;
48987;SDS011;34799;51.440;-2.534;2023-12-22T01:01:04;11.55;;;1.10;;
48987;SDS011;34799;51.440;-2.534;2023-12-22T01:03:33;7.22;;;1.75;;
48987;SDS011;34799;51.440;-2.534;2023-12-22T01:06:02;8.13;;;1.42;;
48987;SDS011;34799;51.440;-2.534;2023-12-22T01:08:31;9.30;;;2.53;;
48987;SDS011;34799;51.440;-2.534;2023-12-22T01:11:03;12.93;;;1.65;;
48987;SDS011;34799;51.440;-2.534;2023-12-22T01:13:30;9.40;;;0.70;;
48987;SDS011;34799;51.440;-2.534;2023-12-22T01:16:01;4.50;;;0.70;;
48987;SDS011;34799;51.440;-2.534;2023-12-22T01:18:29;10.73;;;0.70;;
48987;SDS011;34799;51.440;-2.534;2023-12-22T01:20:59;10.15;;;1.15;;
48987;SDS011;34799;51.440;-2.534;2023-12-22T01:23:26;7.30;;;0.63;;
48987;SDS011;34799;51.440;-2.534;2023-12-22T01:26:03;6.30;;;0.93;;
48987;SDS011;34799;51.440;-2.534;2023-12-22T01:28:30;10.52;;;1.45;;
48987;SDS011;34799;51.440;-2.534;2023-12-22T01:30:58;9.27;;;1.58;;
48987;SDS011;34799;51.440;-2.534;2023-12-22T01:33:26;7.68;;;1.23;;
48987;SDS011;34799;51.440;-2.534;2023-12-22T01:35:54;6.10;;;1.00;;
48987;SDS011;34799;51.440;-2.534;2023-12-22T01:38:24;9.25;;;0.75;;
48987;SDS011;34799;51.440;-2.534;2023-12-22T01:40:51;7.22;;;1.02;;
48987;SDS011;34799;51.440;-2.534;2023-12-22T01:43:21;7.53;;;1.30;;
48987;SDS011;34799;51.440;-2.534;2023-12-22T01:48:56;11.40;;;1.50;;
48987;SDS011;34799;51.440;-2.534;2023-12-22T01:51:24;11.80;;;0.80;;
48987;SDS011;34799;51.440;-2.534;2023-12-22T01:53:52;11.05;;;1.17;;
48987;SDS011;34799;51.440;-2.534;2023-12-22T01:56:21;5.18;;;0.55;;
48987;SDS011;34799;51.440;-2.534;2023-12-22T01:58:52;6.63;;;1.13;;
48987;SDS011;34799;51.440;-2.534;2023-12-22T02:01:24;3.47;;;0.80;;
48987;SDS011;34799;51.440;-2.534;2023-12-22T02:03:52;7.55;;;1.33;;
48987;SDS011;34799;51.440;-2.534;2023-12-22T02:06:21;4.43;;;1.42;;
48987;SDS011;34799;51.440;-2.534;2023-12-22T02:08:48;4.57;;;0.60;;
48987;SDS011;34799;51.440;-2.534;2023-12-22T02:11:17;10.45;;;1.38;;
48987;SDS011;34799;51.440;-2.534;2023-12-22T02:13:45;8.20;;;0.80;;
48987;SDS011;34799;51.440;-2.534;2023-12-22T02:19:26;7.88;;;1.13;;
48987;SDS011;34799;51.440;-2.534;2023-12-22T02:22:10;4.20;;;0.70;;
48987;SDS011;34799;51.440;-2.534;2023-12-22T02:24:40;7.15;;;0.80;;
48987;SDS011;34799;51.440;-2.534;2023-12-22T02:27:22;6.80;;;0.70;;
48987;SDS011;34799;51.440;-2.534;2023-12-22T02:30:39;9.00;;;1.10;;
48987;SDS011;34799;51.440;-2.534;2023-12-22T02:33:22;5.60;;;1.15;;
48987;SDS011;34799;51.440;-2.534;2023-12-22T02:35:54;7.10;;;0.77;;
48987;SDS011;34799;51.440;-2.534;2023-12-22T02:38:30;5.78;;;0.55;;
48987;SDS011;34799;51.440;-2.534;2023-12-22T02:41:00;11.10;;;1.38;;
48987;SDS011;34799;51.440;-2.534;2023-12-22T02:43:30;8.80;;;0.70;;
48987;SDS011;34799;51.440;-2.534;2023-12-22T02:46:00;6.88;;;0.70;;
48987;SDS011;34799;51.440;-2.534;2023-12-22T02:48:28;4.28;;;0.60;;
48987;SDS011;34799;51.440;-2.534;2023-12-22T02:50:57;7.10;;;1.23;;
48987;SDS011;34799;51.440;-2.534;2023-12-22T02:53:26;1.95;;;0.63;;
48987;SDS011;34799;51.440;-2.534;2023-12-22T02:55:55;8.02;;;0.82;;
48987;SDS011;34799;51.440;-2.534;2023-12-22T02:58:24;5.78;;;0.85;;
48987;SDS011;34799;51.440;-2.534;2023-12-22T03:00:53;3.50;;;0.88;;
48987;SDS011;34799;51.440;-2.534;2023-12-22T03:03:22;8.95;;;0.50;;
48987;SDS011;34799;51.440;-2.534;2023-12-22T03:05:52;9.10;;;0.90;;
48987;SDS011;34799;51.440;-2.534;2023-12-22T03:08:21;10.30;;;0.85;;
48987;SDS011;34799;51.440;-2.534;2023-12-22T03:10:50;10.40;;;1.52;;
48987;SDS011;34799;51.440;-2.534;2023-12-22T03:13:19;7.20;;;0.73;;
48987;SDS011;34799;51.440;-2.534;2023-12-22T03:15:49;3.80;;;0.93;;
48987;SDS011;34799;51.440;-2.534;2023-12-22T03:18:17;8.10;;;0.95;;
48987;SDS011;34799;51.440;-2.534;2023-12-22T03:20:46;10.05;;;1.45;;
48987;SDS011;34799;51.440;-2.534;2023-12-22T03:23:15;9.60;;;0.93;;
48987;SDS011;34799;51.440;-2.534;2023-12-22T03:25:44;6.43;;;1.42;;
48987;SDS011;34799;51.440;-2.534;2023-12-22T03:28:14;8.70;;;0.95;;
48987;SDS011;34799;51.440;-2.534;2023-12-22T03:30:44;5.30;;;1.00;;
48987;SDS011;34799;51.440;-2.534;2023-12-22T03:33:14;9.48;;;0.82;;
48987;SDS011;34799;51.440;-2.534;2023-12-22T03:35:42;5.75;;;0.90;;
48987;SDS011;34799;51.440;-2.534;2023-12-22T03:38:10;8.68;;;0.88;;
48987;SDS011;34799;51.440;-2.534;2023-12-22T03:40:39;3.47;;;0.73;;
48987;SDS011;34799;51.440;-2.534;2023-12-22T03:43:09;3.95;;;0.40;;
48987;SDS011;34799;51.440;-2.534;2023-12-22T03:45:37;4.30;;;0.85;;
48987;SDS011;34799;51.440;-2.534;2023-12-22T03:48:06;5.60;;;0.70;;
48987;SDS011;34799;51.440;-2.534;2023-12-22T03:50:34;3.88;;;0.40;;
48987;SDS011;34799;51.440;-2.534;2023-12-22T03:53:02;6.55;;;0.85;;
48987;SDS011;34799;51.440;-2.534;2023-12-22T03:55:36;11.60;;;0.88;;
48987;SDS011;34799;51.440;-2.534;2023-12-22T03:58:04;3.60;;;0.75;;
48987;SDS011;34799;51.440;-2.534;2023-12-22T04:00:37;5.13;;;0.70;;
48987;SDS011;34799;51.440;-2.534;2023-12-22T04:03:05;3.97;;;0.98;;
48987;SDS011;34799;51.440;-2.534;2023-12-22T04:05:34;6.68;;;0.73;;
48987;SDS011;34799;51.440;-2.534;2023-12-22T04:08:04;5.15;;;0.50;;
48987;SDS011;34799;51.440;-2.534;2023-12-22T04:10:34;4.40;;;0.40;;
48987;SDS011;34799;51.440;-2.534;2023-12-22T04:13:03;5.20;;;0.82;;
48987;SDS011;34799;51.440;-2.534;2023-12-22T04:15:35;5.88;;;0.55;;
48987;SDS011;34799;51.440;-2.534;2023-12-22T04:18:04;8.18;;;1.77;;
48987;SDS011;34799;51.440;-2.534;2023-12-22T04:20:32;3.08;;;0.30;;
48987;SDS011;34799;51.440;-2.534;2023-12-22T04:23:01;7.10;;;0.70;;
48987;SDS011;34799;51.440;-2.534;2023-12-22T04:25:29;2.25;;;0.40;;
48987;SDS011;34799;51.440;-2.534;2023-12-22T04:27:58;3.80;;;0.45;;
48987;SDS011;34799;51.440;-2.534;2023-12-22T04:30:27;2.22;;;0.60;;
48987;SDS011;34799;51.440;-2.534;2023-12-22T04:32:57;3.00;;;0.40;;
48987;SDS011;34799;51.440;-2.534;2023-12-22T04:35:25;8.18;;;0.45;;
48987;SDS011;34799;51.440;-2.534;2023-12-22T04:37:52;3.72;;;0.30;;
48987;SDS011;34799;51.440;-2.534;2023-12-22T04:40:21;5.25;;;0.40;;
48987;SDS011;34799;51.440;-2.534;2023-12-22T04:42:50;6.78;;;0.38;;
48987;SDS011;34799;51.440;-2.534;2023-12-22T04:45:21;3.55;;;0.20;;
48987;SDS011;34799;51.440;-2.534;2023-12-22T04:47:50;6.68;;;0.47;;
48987;SDS011;34799;51.440;-2.534;2023-12-22T04:50:20;3.65;;;0.40;;
48987;SDS011;34799;51.440;-2.534;2023-12-22T04:52:50;3.20;;;1.02;;
48987;SDS011;34799;51.440;-2.534;2023-12-22T04:55:18;5.45;;;0.38;;
48987;SDS011;34799;51.440;-2.534;2023-12-22T04:57:46;7.00;;;0.93;;
48987;SDS011;34799;51.440;-2.534;2023-12-22T05:00:15;3.38;;;0.40;;
48987;SDS011;34799;51.440;-2.534;2023-12-22T05:02:44;8.07;;;0.65;;
48987;SDS011;34799;51.440;-2.534;2023-12-22T05:05:11;9.55;;;1.02;;
48987;SDS011;34799;51.440;-2.534;2023-12-22T05:07:40;7.07;;;0.68;;
48987;SDS011;34799;51.440;-2.534;2023-12-22T05:10:10;3.25;;;0.60;;
48987;SDS011;34799;51.440;-2.534;2023-12-22T05:12:41;8.82;;;0.50;;
48987;SDS011;34799;51.440;-2.534;2023-12-22T05:15:09;5.70;;;0.43;;
48987;SDS011;34799;51.440;-2.534;2023-12-22T05:17:37;2.42;;;0.55;;
48987;SDS011;34799;51.440;-2.534;2023-12-22T05:20:07;4.63;;;0.32;;
48987;SDS011;34799;51.440;-2.534;2023-12-22T05:22:36;4.57;;;0.57;;
48987;SDS011;34799;51.440;-2.534;2023-12-22T05:25:05;5.80;;;0.70;;
48987;SDS011;34799;51.440;-2.534;2023-12-22T05:27:33;6.93;;;0.93;;
48987;SDS011;34799;51.440;-2.534;2023-12-22T05:30:02;8.32;;;1.67;;
48987;SDS011;34799;51.440;-2.534;2023-12-22T05:32:31;6.97;;;1.77;;
48987;SDS011;34799;51.440;-2.534;2023-12-22T05:35:03;2.88;;;0.73;;
48987;SDS011;34799;51.440;-2.534;2023-12-22T05:37:32;6.60;;;0.75;;
48987;SDS011;34799;51.440;-2.534;2023-12-22T05:39:59;7.80;;;1.02;;
48987;SDS011;34799;51.440;-2.534;2023-12-22T05:42:27;6.32;;;1.13;;
48987;SDS011;34799;51.440;-2.534;2023-12-22T05:44:56;2.05;;;0.40;;
48987;SDS011;34799;51.440;-2.534;2023-12-22T05:47:27;7.32;;;1.58;;
48987;SDS011;34799;51.440;-2.534;2023-12-22T05:49:58;6.45;;;0.32;;
48987;SDS011;34799;51.440;-2.534;2023-12-22T05:52:26;7.03;;;0.75;;
48987;SDS011;34799;51.440;-2.534;2023-12-22T05:54:54;4.70;;;0.25;;
48987;SDS011;34799;51.440;-2.534;2023-12-22T05:57:24;7.30;;;0.60;;
48987;SDS011;34799;51.440;-2.534;2023-12-22T05:59:54;5.65;;;0.57;;
48987;SDS011;34799;51.440;-2.534;2023-12-22T06:02:21;5.43;;;0.50;;
48987;SDS011;34799;51.440;-2.534;2023-12-22T06:04:50;7.07;;;0.70;;
48987;SDS011;34799;51.440;-2.534;2023-12-22T06:07:17;7.15;;;1.63;;
48987;SDS011;34799;51.440;-2.534;2023-12-22T06:09:47;8.63;;;1.10;;
48987;SDS011;34799;51.440;-2.534;2023-12-22T06:12:15;11.07;;;1.50;;
48987;SDS011;34799;51.440;-2.534;2023-12-22T06:14:43;7.95;;;0.75;;
48987;SDS011;34799;51.440;-2.534;2023-12-22T06:17:12;7.40;;;0.70;;
48987;SDS011;34799;51.440;-2.534;2023-12-22T06:19:41;6.40;;;0.70;;
48987;SDS011;34799;51.440;-2.534;2023-12-22T06:22:10;9.13;;;1.02;;
48987;SDS011;34799;51.440;-2.534;2023-12-22T06:24:40;8.52;;;1.08;;
48987;SDS011;34799;51.440;-2.534;2023-12-22T06:27:09;6.03;;;0.80;;
48987;SDS011;34799;51.440;-2.534;2023-12-22T06:29:37;7.18;;;0.82;;
48987;SDS011;34799;51.440;-2.534;2023-12-22T06:32:09;5.18;;;0.80;;
48987;SDS011;34799;51.440;-2.534;2023-12-22T06:37:13;13.60;;;1.20;;
48987;SDS011;34799;51.440;-2.534;2023-12-22T06:39:48;6.40;;;0.68;;
48987;SDS011;34799;51.440;-2.534;2023-12-22T06:42:19;2.90;;;0.55;;
48987;SDS011;34799;51.440;-2.534;2023-12-22T06:44:50;10.75;;;1.42;;
48987;SDS011;34799;51.440;-2.534;2023-12-22T06:47:21;12.57;;;0.98;;
48987;SDS011;34799;51.440;-2.534;2023-12-22T06:49:50;14.27;;;1.02;;
48987;SDS011;34799;51.440;-2.534;2023-12-22T06:52:18;14.43;;;1.38;;
48987;SDS011;34799;51.440;-2.534;2023-12-22T06:54:46;12.80;;;1.00;;
48987;SDS011;34799;51.440;-2.534;2023-12-22T06:57:15;12.60;;;1.40;;
48987;SDS011;34799;51.440;-2.534;2023-12-22T06:59:45;12.10;;;1.17;;
48987;SDS011;34799;51.440;-2.534;2023-12-22T07:02:15;14.23;;;1.75;;
48987;SDS011;34799;51.440;-2.534;2023-12-22T07:07:38;14.20;;;1.42;;
48987;SDS011;34799;51.440;-2.534;2023-12-22T07:10:14;11.45;;;1.48;;
48987;SDS011;34799;51.440;-2.534;2023-12-22T07:12:42;7.68;;;1.08;;
48987;SDS011;34799;51.440;-2.534;2023-12-22T07:15:13;13.68;;;1.80;;
48987;SDS011;34799;51.440;-2.534;2023-12-22T07:17:44;9.45;;;1.40;;
48987;SDS011;34799;51.440;-2.534;2023-12-22T07:20:19;12.02;;;1.13;;
48987;SDS011;34799;51.440;-2.534;2023-12-22T07:22:49;12.27;;;1.25;;
48987;SDS011;34799;51.440;-2.534;2023-12-22T07:25:18;14.52;;;1.50;;
48987;SDS011;34799;51.440;-2.534;2023-12-22T07:27:49;18.10;;;1.33;;
48987;SDS011;34799;51.440;-2.534;2023-12-22T07:30:19;14.93;;;1.50;;
48987;SDS011;34799;51.440;-2.534;2023-12-22T07:32:49;13.45;;;1.75;;
48987;SDS011;34799;51.440;-2.534;2023-12-22T07:35:21;16.55;;;1.83;;
48987;SDS011;34799;51.440;-2.534;2023-12-22T07:37:51;17.05;;;1.85;;
48987;SDS011;34799;51.440;-2.534;2023-12-22T07:40:22;12.82;;;1.10;;
48987;SDS011;34799;51.440;-2.534;2023-12-22T07:42:53;20.52;;;2.25;;
48987;SDS011;34799;51.440;-2.534;2023-12-22T07:45:21;13.52;;;2.00;;
48987;SDS011;34799;51.440;-2.534;2023-12-22T07:47:49;15.63;;;1.65;;
48987;SDS011;34799;51.440;-2.534;2023-12-22T07:50:18;15.75;;;1.73;;
48987;SDS011;34799;51.440;-2.534;2023-12-22T07:52:48;13.55;;;1.75;;
48987;SDS011;34799;51.440;-2.534;2023-12-22T07:55:27;14.10;;;1.15;;
48987;SDS011;34799;51.440;-2.534;2023-12-22T07:57:55;16.25;;;2.33;;
48987;SDS011;34799;51.440;-2.534;2023-12-22T08:00:24;11.82;;;1.45;;
48987;SDS011;34799;51.440;-2.534;2023-12-22T08:02:52;12.77;;;1.33;;
48987;SDS011;34799;51.440;-2.534;2023-12-22T08:05:23;11.32;;;1.50;;
48987;SDS011;34799;51.440;-2.534;2023-12-22T08:07:52;13.68;;;3.22;;
48987;SDS011;34799;51.440;-2.534;2023-12-22T08:10:20;13.10;;;1.27;;
48987;SDS011;34799;51.440;-2.534;2023-12-22T08:12:48;13.70;;;1.17;;
48987;SDS011;34799;51.440;-2.534;2023-12-22T08:15:18;12.52;;;1.33;;
48987;SDS011;34799;51.440;-2.534;2023-12-22T08:17:51;11.10;;;1.38;;
48987;SDS011;34799;51.440;-2.534;2023-12-22T08:20:21;12.73;;;1.27;;
48987;SDS011;34799;51.440;-2.534;2023-12-22T08:23:07;13.55;;;1.55;;
48987;SDS011;34799;51.440;-2.534;2023-12-22T08:25:36;11.45;;;1.30;;
48987;SDS011;34799;51.440;-2.534;2023-12-22T08:28:10;15.98;;;1.48;;
48987;SDS011;34799;51.440;-2.534;2023-12-22T08:30:40;14.20;;;1.67;;
48987;SDS011;34799;51.440;-2.534;2023-12-22T08:33:13;18.52;;;1.67;;
48987;SDS011;34799;51.440;-2.534;2023-12-22T08:35:53;14.32;;;1.90;;
48987;SDS011;34799;51.440;-2.534;2023-12-22T08:38:22;13.43;;;1.23;;
48987;SDS011;34799;51.440;-2.534;2023-12-22T08:40:53;17.30;;;2.28;;
48987;SDS011;34799;51.440;-2.534;2023-12-22T08:43:25;17.30;;;2.05;;
48987;SDS011;34799;51.440;-2.534;2023-12-22T08:45:53;9.68;;;1.73;;
48987;SDS011;34799;51.440;-2.534;2023-12-22T08:48:27;12.48;;;1.77;;
48987;SDS011;34799;51.440;-2.534;2023-12-22T08:50:59;10.38;;;1.98;;
48987;SDS011;34799;51.440;-2.534;2023-12-22T08:53:28;15.90;;;2.20;;
48987;SDS011;34799;51.440;-2.534;2023-12-22T08:56:00;11.40;;;1.35;;
48987;SDS011;34799;51.440;-2.534;2023-12-22T08:58:30;15.02;;;1.38;;
48987;SDS011;34799;51.440;-2.534;2023-12-22T09:00:58;19.10;;;2.60;;
48987;SDS011;34799;51.440;-2.534;2023-12-22T09:03:33;13.10;;;1.77;;
48987;SDS011;34799;51.440;-2.534;2023-12-22T09:06:07;12.15;;;1.60;;
48987;SDS011;34799;51.440;-2.534;2023-12-22T09:08:47;17.02;;;1.95;;
48987;SDS011;34799;51.440;-2.534;2023-12-22T09:11:20;11.75;;;1.50;;
48987;SDS011;34799;51.440;-2.534;2023-12-22T09:13:51;12.57;;;1.55;;
48987;SDS011;34799;51.440;-2.534;2023-12-22T09:16:23;12.13;;;1.63;;
48987;SDS011;34799;51.440;-2.534;2023-12-22T09:18:53;12.30;;;1.42;;
48987;SDS011;34799;51.440;-2.534;2023-12-22T09:21:24;12.50;;;1.48;;
48987;SDS011;34799;51.440;-2.534;2023-12-22T09:23:56;10.65;;;1.20;;
48987;SDS011;34799;51.440;-2.534;2023-12-22T09:26:31;12.05;;;2.22;;
48987;SDS011;34799;51.440;-2.534;2023-12-22T09:29:01;14.85;;;1.23;;
48987;SDS011;34799;51.440;-2.534;2023-12-22T09:31:29;13.00;;;1.63;;
48987;SDS011;34799;51.440;-2.534;2023-12-22T09:34:00;13.07;;;1.83;;
48987;SDS011;34799;51.440;-2.534;2023-12-22T09:36:29;10.60;;;0.82;;
48987;SDS011;34799;51.440;-2.534;2023-12-22T09:38:57;15.57;;;2.03;;
48987;SDS011;34799;51.440;-2.534;2023-12-22T09:41:25;11.15;;;1.00;;
48987;SDS011;34799;51.440;-2.534;2023-12-22T09:52:22;16.30;;;1.48;;
48987;SDS011;34799;51.440;-2.534;2023-12-22T09:54:53;10.15;;;0.95;;
48987;SDS011;34799;51.440;-2.534;2023-12-22T09:57:26;12.68;;;1.38;;
48987;SDS011;34799;51.440;-2.534;2023-12-22T09:59:54;11.75;;;1.27;;
48987;SDS011;34799;51.440;-2.534;2023-12-22T10:02:39;12.45;;;1.23;;
48987;SDS011;34799;51.440;-2.534;2023-12-22T10:05:12;17.33;;;1.75;;
48987;SDS011;34799;51.440;-2.534;2023-12-22T10:07:46;10.30;;;1.48;;
48987;SDS011;34799;51.440;-2.534;2023-12-22T10:10:22;15.85;;;1.92;;
48987;SDS011;34799;51.440;-2.534;2023-12-22T10:12:52;15.30;;;1.52;;
48987;SDS011;34799;51.440;-2.534;2023-12-22T10:15:21;13.00;;;1.67;;
48987;SDS011;34799;51.440;-2.534;2023-12-22T10:20:51;17.08;;;1.45;;
48987;SDS011;34799;51.440;-2.534;2023-12-22T10:23:19;16.90;;;1.35;;
48987;SDS011;34799;51.440;-2.534;2023-12-22T10:25:50;14.95;;;1.50;;
48987;SDS011;34799;51.440;-2.534;2023-12-22T10:28:23;14.50;;;2.05;;
48987;SDS011;34799;51.440;-2.534;2023-12-22T10:30:57;12.13;;;1.35;;
48987;SDS011;34799;51.440;-2.534;2023-12-22T10:33:32;11.15;;;1.35;;
48987;SDS011;34799;51.440;-2.534;2023-12-22T10:36:01;14.15;;;1.75;;
48987;SDS011;34799;51.440;-2.534;2023-12-22T10:38:32;13.85;;;1.30;;
48987;SDS011;34799;51.440;-2.534;2023-12-22T10:41:06;10.73;;;1.30;;
48987;SDS011;34799;51.440;-2.534;2023-12-22T10:43:38;12.55;;;2.15;;
48987;SDS011;34799;51.440;-2.534;2023-12-22T10:46:07;8.18;;;1.02;;
48987;SDS011;34799;51.440;-2.534;2023-12-22T10:48:39;11.93;;;1.13;;
48987;SDS011;34799;51.440;-2.534;2023-12-22T10:54:20;11.93;;;1.05;;
48987;SDS011;34799;51.440;-2.534;2023-12-22T10:56:53;12.10;;;2.55;;
48987;SDS011;34799;51.440;-2.534;2023-12-22T11:02:06;15.27;;;1.50;;
48987;SDS011;34799;51.440;-2.534;2023-12-22T11:04:37;13.07;;;1.15;;
48987;SDS011;34799;51.440;-2.534;2023-12-22T11:07:08;20.50;;;2.03;;
48987;SDS011;34799;51.440;-2.534;2023-12-22T11:09:37;9.43;;;0.95;;
48987;SDS011;34799;51.440;-2.534;2023-12-22T11:12:11;12.50;;;1.20;;
48987;SDS011;34799;51.440;-2.534;2023-12-22T11:14:47;12.50;;;1.50;;
48987;SDS011;34799;51.440;-2.534;2023-12-22T11:17:24;14.60;;;1.05;;
48987;SDS011;34799;51.440;-2.534;2023-12-22T11:20:00;8.95;;;1.00;;
48987;SDS011;34799;51.440;-2.534;2023-12-22T11:22:32;13.05;;;1.13;;
48987;SDS011;34799;51.440;-2.534;2023-12-22T11:25:13;11.00;;;1.67;;
48987;SDS011;34799;51.440;-2.534;2023-12-22T11:28:07;15.90;;;1.40;;
48987;SDS011;34799;51.440;-2.534;2023-12-22T11:30:46;14.70;;;1.27;;
48987;SDS011;34799;51.440;-2.534;2023-12-22T11:33:23;7.05;;;1.08;;
48987;SDS011;34799;51.440;-2.534;2023-12-22T11:35:56;10.80;;;1.27;;
48987;SDS011;34799;51.440;-2.534;2023-12-22T11:38:28;8.45;;;1.38;;
48987;SDS011;34799;51.440;-2.534;2023-12-22T11:41:00;10.30;;;1.30;;
48987;SDS011;34799;51.440;-2.534;2023-12-22T11:43:35;8.32;;;1.73;;
48987;SDS011;34799;51.440;-2.534;2023-12-22T11:46:14;14.35;;;2.90;;
48987;SDS011;34799;51.440;-2.534;2023-12-22T11:55:07;12.15;;;1.20;;
48987;SDS011;34799;51.440;-2.534;2023-12-22T11:57:43;8.95;;;0.80;;
48987;SDS011;34799;51.440;-2.534;2023-12-22T12:03:32;13.80;;;1.88;;
48987;SDS011;34799;51.440;-2.534;2023-12-22T12:06:33;7.85;;;0.88;;
48987;SDS011;34799;51.440;-2.534;2023-12-22T12:09:10;9.75;;;0.98;;
48987;SDS011;34799;51.440;-2.534;2023-12-22T12:14:28;11.18;;;1.10;;
48987;SDS011;34799;51.440;-2.534;2023-12-22T12:17:03;8.73;;;1.35;;
48987;SDS011;34799;51.440;-2.534;2023-12-22T12:19:36;10.35;;;0.75;;
48987;SDS011;34799;51.440;-2.534;2023-12-22T12:22:15;10.85;;;1.67;;
48987;SDS011;34799;51.440;-2.534;2023-12-22T12:24:48;14.95;;;1.83;;
48987;SDS011;34799;51.440;-2.534;2023-12-22T12:27:25;17.40;;;2.20;;
48987;SDS011;34799;51.440;-2.534;2023-12-22T12:30:05;9.65;;;0.68;;
48987;SDS011;34799;51.440;-2.534;2023-12-22T12:32:38;13.50;;;1.77;;
48987;SDS011;34799;51.440;-2.534;2023-12-22T12:35:06;24.55;;;2.60;;
48987;SDS011;34799;51.440;-2.534;2023-12-22T12:37:35;9.40;;;1.30;;
48987;SDS011;34799;51.440;-2.534;2023-12-22T12:40:07;9.55;;;1.55;;
48987;SDS011;34799;51.440;-2.534;2023-12-22T12:42:36;8.55;;;1.02;;
48987;SDS011;34799;51.440;-2.534;2023-12-22T12:45:10;12.07;;;1.50;;
48987;SDS011;34799;51.440;-2.534;2023-12-22T12:47:41;9.50;;;0.93;;
48987;SDS011;34799;51.440;-2.534;2023-12-22T12:50:27;8.68;;;0.90;;
48987;SDS011;34799;51.440;-2.534;2023-12-22T12:53:01;9.68;;;1.30;;
48987;SDS011;34799;51.440;-2.534;2023-12-22T12:55:32;12.70;;;1.38;;
48987;SDS011;34799;51.440;-2.534;2023-12-22T12:58:10;7.68;;;0.93;;
48987;SDS011;34799;51.440;-2.534;2023-12-22T13:00:39;13.23;;;1.65;;
48987;SDS011;34799;51.440;-2.534;2023-12-22T13:03:09;9.45;;;1.45;;
48987;SDS011;34799;51.440;-2.534;2023-12-22T13:05:37;12.85;;;1.00;;
48987;SDS011;34799;51.440;-2.534;2023-12-22T13:08:12;11.63;;;1.70;;
48987;SDS011;34799;51.440;-2.534;2023-12-22T13:10:41;6.45;;;0.50;;
48987;SDS011;34799;51.440;-2.534;2023-12-22T13:13:13;5.25;;;0.80;;
48987;SDS011;34799;51.440;-2.534;2023-12-22T13:15:43;6.18;;;0.63;;
48987;SDS011;34799;51.440;-2.534;2023-12-22T13:18:11;7.97;;;1.55;;
48987;SDS011;34799;51.440;-2.534;2023-12-22T13:20:41;6.25;;;1.00;;
48987;SDS011;34799;51.440;-2.534;2023-12-22T13:23:09;7.05;;;0.52;;
48987;SDS011;34799;51.440;-2.534;2023-12-22T13:25:40;9.65;;;1.42;;
48987;SDS011;34799;51.440;-2.534;2023-12-22T13:28:09;10.30;;;1.25;;
48987;SDS011;34799;51.440;-2.534;2023-12-22T13:30:38;7.55;;;0.68;;
48987;SDS011;34799;51.440;-2.534;2023-12-22T13:33:08;8.85;;;0.65;;
48987;SDS011;34799;51.440;-2.534;2023-12-22T13:35:37;11.02;;;1.10;;
48987;SDS011;34799;51.440;-2.534;2023-12-22T13:38:05;6.95;;;0.73;;
48987;SDS011;34799;51.440;-2.534;2023-12-22T13:40:35;6.53;;;0.80;;
48987;SDS011;34799;51.440;-2.534;2023-12-22T13:43:05;9.57;;;0.85;;
48987;SDS011;34799;51.440;-2.534;2023-12-22T13:45:36;7.70;;;0.75;;
48987;SDS011;34799;51.440;-2.534;2023-12-22T13:48:06;8.23;;;0.63;;
48987;SDS011;34799;51.440;-2.534;2023-12-22T13:50:38;10.10;;;1.15;;
48987;SDS011;34799;51.440;-2.534;2023-12-22T13:56:15;9.82;;;0.50;;
48987;SDS011;34799;51.440;-2.534;2023-12-22T13:58:43;9.00;;;0.73;;
48987;SDS011;34799;51.440;-2.534;2023-12-22T14:01:14;8.32;;;0.80;;
48987;SDS011;34799;51.440;-2.534;2023-12-22T14:03:43;8.27;;;0.88;;
48987;SDS011;34799;51.440;-2.534;2023-12-22T14:06:15;7.82;;;1.20;;
48987;SDS011;34799;51.440;-2.534;2023-12-22T14:08:44;7.45;;;1.02;;
48987;SDS011;34799;51.440;-2.534;2023-12-22T14:11:15;11.68;;;1.30;;
48987;SDS011;34799;51.440;-2.534;2023-12-22T14:13:45;7.72;;;1.05;;
48987;SDS011;34799;51.440;-2.534;2023-12-22T14:16:17;5.63;;;0.70;;
48987;SDS011;34799;51.440;-2.534;2023-12-22T14:18:47;10.38;;;0.70;;
48987;SDS011;34799;51.440;-2.534;2023-12-22T14:21:17;8.07;;;0.77;;
48987;SDS011;34799;51.440;-2.534;2023-12-22T14:23:46;4.68;;;0.93;;
48987;SDS011;34799;51.440;-2.534;2023-12-22T14:26:19;5.07;;;0.57;;
48987;SDS011;34799;51.440;-2.534;2023-12-22T14:28:48;7.35;;;0.57;;
48987;SDS011;34799;51.440;-2.534;2023-12-22T14:31:20;7.82;;;0.50;;
48987;SDS011;34799;51.440;-2.534;2023-12-22T14:33:48;5.10;;;0.55;;
48987;SDS011;34799;51.440;-2.534;2023-12-22T14:36:25;8.43;;;1.20;;
48987;SDS011;34799;51.440;-2.534;2023-12-22T14:38:56;5.07;;;0.80;;
48987;SDS011;34799;51.440;-2.534;2023-12-22T14:41:24;5.00;;;0.80;;
48987;SDS011;34799;51.440;-2.534;2023-12-22T14:43:53;4.18;;;0.73;;
48987;SDS011;34799;51.440;-2.534;2023-12-22T14:46:31;5.00;;;0.85;;
48987;SDS011;34799;51.440;-2.534;2023-12-22T14:48:59;7.22;;;1.25;;
48987;SDS011;34799;51.440;-2.534;2023-12-22T14:51:30;4.22;;;0.50;;
48987;SDS011;34799;51.440;-2.534;2023-12-22T14:54:09;6.30;;;0.68;;
48987;SDS011;34799;51.440;-2.534;2023-12-22T14:56:40;5.15;;;0.73;;
48987;SDS011;34799;51.440;-2.534;2023-12-22T14:59:10;5.80;;;0.68;;
48987;SDS011;34799;51.440;-2.534;2023-12-22T15:01:39;4.03;;;0.80;;
48987;SDS011;34799;51.440;-2.534;2023-12-22T15:04:11;4.85;;;0.55;;
48987;SDS011;34799;51.440;-2.534;2023-12-22T15:06:40;5.78;;;1.05;;
48987;SDS011;34799;51.440;-2.534;2023-12-22T15:09:13;7.00;;;0.35;;
48987;SDS011;34799;51.440;-2.534;2023-12-22T15:11:48;5.10;;;0.90;;
48987;SDS011;34799;51.440;-2.534;2023-12-22T15:14:17;7.35;;;0.70;;
48987;SDS011;34799;51.440;-2.534;2023-12-22T15:16:46;7.38;;;0.52;;
48987;SDS011;34799;51.440;-2.534;2023-12-22T15:19:14;6.70;;;0.75;;
48987;SDS011;34799;51.440;-2.534;2023-12-22T15:21:43;9.13;;;1.10;;
48987;SDS011;34799;51.440;-2.534;2023-12-22T15:24:11;5.22;;;0.65;;
48987;SDS011;34799;51.440;-2.534;2023-12-22T15:26:40;8.20;;;0.40;;
48987;SDS011;34799;51.440;-2.534;2023-12-22T15:29:10;6.35;;;0.70;;
48987;SDS011;34799;51.440;-2.534;2023-12-22T15:31:47;3.60;;;0.50;;
48987;SDS011;34799;51.440;-2.534;2023-12-22T15:34:17;5.35;;;0.60;;